Time,TemperatureF,DewpointF,PressureIn,WindDirection,WindDirectionDegrees,WindSpeedMPH,WindSpeedGustMPH,Humidity,HourlyPrecipIn,Conditions,Clouds,dailyrainin,SoftwareType,DateUTC
2013-12-27 00:04:00,34.9,29.3,30.30,North,0,0.0,0.0,80,0.00,,,0.00,WUHU21623XXSP,2013-12-27 06:04:00,
2013-12-27 00:09:00,34.9,29.3,30.30,North,0,0.0,0.0,80,0.00,,,0.00,WUHU21623XXSP,2013-12-27 06:09:00,
2013-12-27 00:14:00,34.9,29.3,30.30,North,0,0.0,0.0,80,0.00,,,0.00,WUHU21623XXSP,2013-12-27 06:14:00,
2013-12-27 00:21:00,34.9,29.3,30.30,North,0,0.0,0.0,80,0.00,,,0.00,WUHU21623XXSP,2013-12-27 06:21:00,
2013-12-27 00:26:00,34.9,29.3,30.30,North,0,0.0,0.0,80,0.00,,,0.00,WUHU21623XXSP,2013-12-27 06:26:00,
2013-12-27 00:33:00,34.9,29.3,30.30,North,0,0.0,0.0,80,0.00,,,0.00,WUHU21623XXSP,2013-12-27 06:33:00,
2013-12-27 00:38:00,34.3,28.8,30.30,North,0,0.0,0.0,80,0.00,,,0.00,WUHU21623XXSP,2013-12-27 06:38:00,
2013-12-27 00:43:00,34.3,28.8,30.30,North,0,0.0,0.0,80,0.00,,,0.00,WUHU21623XXSP,2013-12-27 06:43:00,
2013-12-27 00:48:00,34.0,28.8,30.30,North,0,0.0,0.0,81,0.00,,,0.00,WUHU21623XXSP,2013-12-27 06:48:00,
2013-12-27 00:53:00,33.6,28.5,30.30,North,0,0.0,0.0,81,0.00,,,0.00,WUHU21623XXSP,2013-12-27 06:53:00,
2013-12-27 00:58:00,33.6,28.3,30.30,North,0,0.0,0.0,81,0.00,,,0.00,WUHU21623XXSP,2013-12-27 06:58:00,
2013-12-27 01:03:00,33.4,28.2,30.30,North,0,0.0,0.0,81,0.00,,,0.00,WUHU21623XXSP,2013-12-27 07:03:00,
2013-12-27 01:08:00,33.1,28.0,30.30,North,0,0.0,0.0,81,0.00,,,0.00,WUHU21623XXSP,2013-12-27 07:08:00,
2013-12-27 01:13:00,32.9,27.7,30.30,North,0,0.0,0.0,81,0.00,,,0.00,WUHU21623XXSP,2013-12-27 07:13:00,
2013-12-27 01:18:00,32.9,27.7,30.30,North,0,0.0,0.0,81,0.00,,,0.00,WUHU21623XXSP,2013-12-27 07:18:00,
2013-12-27 01:23:00,32.4,27.7,30.30,North,0,0.0,0.0,81,0.00,,,0.00,WUHU21623XXSP,2013-12-27 07:23:00,
2013-12-27 01:28:00,32.2,27.3,30.30,North,0,0.0,0.0,82,0.00,,,0.00,WUHU21623XXSP,2013-12-27 07:28:00,
2013-12-27 01:33:00,32.2,27.3,30.30,North,0,0.0,0.0,82,0.00,,,0.00,WUHU21623XXSP,2013-12-27 07:33:00,
2013-12-27 01:40:00,31.8,27.0,30.30,North,0,0.0,0.0,82,0.00,,,0.00,WUHU21623XXSP,2013-12-27 07:40:00,
2013-12-27 01:45:00,31.8,27.0,30.30,North,0,0.0,0.0,82,0.00,,,0.00,WUHU21623XXSP,2013-12-27 07:45:00,
2013-12-27 01:50:00,31.6,26.8,30.31,North,0,0.0,0.0,82,0.00,,,0.00,WUHU21623XXSP,2013-12-27 07:50:00,
2013-12-27 01:55:00,31.3,26.7,30.31,North,0,0.0,0.0,83,0.00,,,0.00,WUHU21623XXSP,2013-12-27 07:55:00,
2013-12-27 02:00:00,31.3,26.7,30.31,North,0,0.0,0.0,83,0.00,,,0.00,WUHU21623XXSP,2013-12-27 08:00:00,
2013-12-27 02:05:00,31.3,26.7,30.31,North,0,0.0,0.0,83,0.00,,,0.00,WUHU21623XXSP,2013-12-27 08:05:00,
2013-12-27 02:10:00,30.9,26.4,30.31,North,0,0.0,0.0,83,0.00,,,0.00,WUHU21623XXSP,2013-12-27 08:10:00,
2013-12-27 02:15:00,30.7,26.5,30.31,North,0,0.0,0.0,84,0.00,,,0.00,WUHU21623XXSP,2013-12-27 08:15:00,
2013-12-27 02:20:00,30.7,26.5,30.31,North,0,0.0,0.0,84,0.00,,,0.00,WUHU21623XXSP,2013-12-27 08:20:00,
2013-12-27 02:25:00,30.7,26.2,30.31,North,0,0.0,0.0,83,0.00,,,0.00,WUHU21623XXSP,2013-12-27 08:25:00,
2013-12-27 02:30:00,30.7,26.2,30.31,North,0,0.0,0.0,83,0.00,,,0.00,WUHU21623XXSP,2013-12-27 08:30:00,
2013-12-27 02:35:00,30.2,25.8,30.31,North,0,0.0,0.0,84,0.00,,,0.00,WUHU21623XXSP,2013-12-27 08:35:00,
2013-12-27 02:40:00,30.0,25.8,30.31,North,0,0.0,0.0,84,0.00,,,0.00,WUHU21623XXSP,2013-12-27 08:40:00,
2013-12-27 02:45:00,30.0,25.8,30.31,North,0,0.0,0.0,84,0.00,,,0.00,WUHU21623XXSP,2013-12-27 08:45:00,
2013-12-27 02:50:00,30.0,25.8,30.31,North,0,0.0,0.0,84,0.00,,,0.00,WUHU21623XXSP,2013-12-27 08:50:00,
2013-12-27 02:55:00,29.8,25.9,30.31,North,0,0.0,0.0,85,0.00,,,0.00,WUHU21623XXSP,2013-12-27 08:55:00,
2013-12-27 03:00:00,29.7,25.7,30.31,North,0,0.0,0.0,85,0.00,,,0.00,WUHU21623XXSP,2013-12-27 09:00:00,
2013-12-27 03:05:00,29.5,25.5,30.31,North,0,0.0,0.0,85,0.00,,,0.00,WUHU21623XXSP,2013-12-27 09:05:00,
2013-12-27 03:10:00,29.3,25.3,30.31,North,0,0.0,0.0,85,0.00,,,0.00,WUHU21623XXSP,2013-12-27 09:10:00,
2013-12-27 03:15:00,29.1,25.2,30.31,North,0,0.0,0.0,85,0.00,,,0.00,WUHU21623XXSP,2013-12-27 09:15:00,
2013-12-27 03:20:00,29.1,25.2,30.31,North,0,0.0,0.0,85,0.00,,,0.00,WUHU21623XXSP,2013-12-27 09:20:00,
2013-12-27 03:25:00,28.9,25.0,30.31,North,0,0.0,0.0,85,0.00,,,0.00,WUHU21623XXSP,2013-12-27 09:25:00,
2013-12-27 03:30:00,28.9,25.0,30.30,North,0,0.0,0.0,86,0.00,,,0.00,WUHU21623XXSP,2013-12-27 09:30:00,
2013-12-27 03:35:00,28.8,25.1,30.31,North,0,0.0,0.0,86,0.00,,,0.00,WUHU21623XXSP,2013-12-27 09:35:00,
2013-12-27 03:40:00,28.6,24.9,30.31,North,0,0.0,0.0,86,0.00,,,0.00,WUHU21623XXSP,2013-12-27 09:40:00,
2013-12-27 03:45:00,28.6,24.9,30.31,North,0,0.0,0.0,86,0.00,,,0.00,WUHU21623XXSP,2013-12-27 09:45:00,
2013-12-27 03:50:00,28.2,24.5,30.31,North,0,0.0,0.0,86,0.00,,,0.00,WUHU21623XXSP,2013-12-27 09:50:00,
2013-12-27 03:55:00,28.2,24.5,30.31,North,0,0.0,0.0,86,0.00,,,0.00,WUHU21623XXSP,2013-12-27 09:55:00,
2013-12-27 04:00:00,28.0,24.5,30.31,North,0,0.0,0.0,86,0.00,,,0.00,WUHU21623XXSP,2013-12-27 10:00:00,
2013-12-27 04:05:00,27.7,24.3,30.31,North,0,0.0,0.0,87,0.00,,,0.00,WUHU21623XXSP,2013-12-27 10:05:00,
2013-12-27 04:10:00,27.7,24.3,30.31,North,0,0.0,0.0,87,0.00,,,0.00,WUHU21623XXSP,2013-12-27 10:10:00,
2013-12-27 04:15:00,27.5,24.1,30.30,North,0,0.0,0.0,87,0.00,,,0.00,WUHU21623XXSP,2013-12-27 10:15:00,
2013-12-27 04:20:00,27.5,24.1,30.31,North,0,0.0,0.0,87,0.00,,,0.00,WUHU21623XXSP,2013-12-27 10:20:00,
2013-12-27 04:25:00,27.3,23.6,30.31,North,0,0.0,0.0,86,0.00,,,0.00,WUHU21623XXSP,2013-12-27 10:25:00,
2013-12-27 04:30:00,27.1,23.5,30.30,North,0,0.0,0.0,86,0.00,,,0.00,WUHU21623XXSP,2013-12-27 10:30:00,
2013-12-27 04:35:00,27.1,23.8,30.30,North,0,0.0,0.0,87,0.00,,,0.00,WUHU21623XXSP,2013-12-27 10:35:00,
2013-12-27 04:40:00,27.0,23.6,30.30,North,0,0.0,0.0,87,0.00,,,0.00,WUHU21623XXSP,2013-12-27 10:40:00,
2013-12-27 04:45:00,26.8,23.4,30.30,North,0,0.0,0.0,87,0.00,,,0.00,WUHU21623XXSP,2013-12-27 10:45:00,
2013-12-27 04:50:00,26.8,23.4,30.31,North,0,0.0,0.0,87,0.00,,,0.00,WUHU21623XXSP,2013-12-27 10:50:00,
2013-12-27 04:55:00,26.8,23.4,30.31,North,0,0.0,0.0,87,0.00,,,0.00,WUHU21623XXSP,2013-12-27 10:55:00,
2013-12-27 05:00:00,26.8,23.4,30.31,North,0,0.0,0.0,87,0.00,,,0.00,WUHU21623XXSP,2013-12-27 11:00:00,
2013-12-27 05:05:00,26.6,23.2,30.31,North,0,0.0,0.0,87,0.00,,,0.00,WUHU21623XXSP,2013-12-27 11:05:00,
2013-12-27 05:10:00,26.6,23.2,30.31,North,0,0.0,0.0,87,0.00,,,0.00,WUHU21623XXSP,2013-12-27 11:10:00,
2013-12-27 05:15:00,26.4,23.0,30.31,North,0,0.0,0.0,87,0.00,,,0.00,WUHU21623XXSP,2013-12-27 11:15:00,
2013-12-27 05:20:00,26.4,23.3,30.31,North,0,0.0,0.0,88,0.00,,,0.00,WUHU21623XXSP,2013-12-27 11:20:00,
2013-12-27 05:25:00,26.4,23.3,30.31,North,0,0.0,0.0,88,0.00,,,0.00,WUHU21623XXSP,2013-12-27 11:25:00,
2013-12-27 05:30:00,26.6,23.5,30.31,North,0,0.0,0.0,88,0.00,,,0.00,WUHU21623XXSP,2013-12-27 11:30:00,
2013-12-27 05:35:00,26.6,23.5,30.32,North,0,0.0,0.0,88,0.00,,,0.00,WUHU21623XXSP,2013-12-27 11:35:00,
2013-12-27 05:40:00,26.4,23.3,30.32,North,0,0.0,0.0,88,0.00,,,0.00,WUHU21623XXSP,2013-12-27 11:40:00,
2013-12-27 05:45:00,26.4,23.3,30.32,North,0,0.0,0.0,88,0.00,,,0.00,WUHU21623XXSP,2013-12-27 11:45:00,
2013-12-27 05:50:00,26.4,23.3,30.32,North,0,0.0,0.0,88,0.00,,,0.00,WUHU21623XXSP,2013-12-27 11:50:00,
2013-12-27 05:55:00,26.4,23.3,30.32,North,0,0.0,0.0,88,0.00,,,0.00,WUHU21623XXSP,2013-12-27 11:55:00,
2013-12-27 06:00:00,26.4,23.3,30.32,North,0,0.0,0.0,88,0.00,,,0.00,WUHU21623XXSP,2013-12-27 12:00:00,
2013-12-27 06:05:00,26.4,23.3,30.32,North,0,0.0,0.0,88,0.00,,,0.00,WUHU21623XXSP,2013-12-27 12:05:00,
2013-12-27 06:10:00,26.4,23.3,30.32,North,0,0.0,0.0,88,0.00,,,0.00,WUHU21623XXSP,2013-12-27 12:10:00,
2013-12-27 06:16:00,26.4,23.3,30.32,North,0,0.0,0.0,88,0.00,,,0.00,WUHU21623XXSP,2013-12-27 12:16:00,
2013-12-27 06:21:00,26.4,23.3,30.32,North,0,0.0,0.0,88,0.00,,,0.00,WUHU21623XXSP,2013-12-27 12:21:00,
2013-12-27 06:26:00,26.4,23.3,30.32,North,0,0.0,0.0,88,0.00,,,0.00,WUHU21623XXSP,2013-12-27 12:26:00,
2013-12-27 06:31:00,26.4,23.3,30.32,North,0,0.0,0.0,88,0.00,,,0.00,WUHU21623XXSP,2013-12-27 12:31:00,
2013-12-27 06:36:00,26.4,23.3,30.32,North,0,0.0,0.0,88,0.00,,,0.00,WUHU21623XXSP,2013-12-27 12:36:00,
2013-12-27 06:41:00,26.2,23.1,30.32,North,0,0.0,0.0,88,0.00,,,0.00,WUHU21623XXSP,2013-12-27 12:41:00,
2013-12-27 06:46:00,26.2,23.1,30.32,North,0,0.0,0.0,88,0.00,,,0.00,WUHU21623XXSP,2013-12-27 12:46:00,
2013-12-27 06:51:00,26.2,23.1,30.32,North,0,0.0,0.0,88,0.00,,,0.00,WUHU21623XXSP,2013-12-27 12:51:00,
2013-12-27 06:56:00,26.1,23.3,30.32,North,0,0.0,0.0,89,0.00,,,0.00,WUHU21623XXSP,2013-12-27 12:56:00,
2013-12-27 07:01:00,26.1,23.3,30.33,North,0,0.0,0.0,89,0.00,,,0.00,WUHU21623XXSP,2013-12-27 13:01:00,
2013-12-27 07:06:00,26.1,23.3,30.33,North,0,0.0,0.0,89,0.00,,,0.00,WUHU21623XXSP,2013-12-27 13:06:00,
2013-12-27 07:11:00,26.1,23.3,30.32,North,0,0.0,0.0,89,0.00,,,0.00,WUHU21623XXSP,2013-12-27 13:11:00,
2013-12-27 07:16:00,25.9,23.1,30.32,North,0,0.0,0.0,89,0.00,,,0.00,WUHU21623XXSP,2013-12-27 13:16:00,
2013-12-27 07:21:00,25.9,23.1,30.32,North,0,0.0,0.0,89,0.00,,,0.00,WUHU21623XXSP,2013-12-27 13:21:00,
2013-12-27 07:26:00,25.9,23.1,30.32,North,0,0.0,0.0,89,0.00,,,0.00,WUHU21623XXSP,2013-12-27 13:26:00,
2013-12-27 07:31:00,25.9,23.1,30.32,North,0,0.0,0.0,89,0.00,,,0.00,WUHU21623XXSP,2013-12-27 13:31:00,
2013-12-27 07:36:00,25.9,23.1,30.33,North,0,0.0,0.0,89,0.00,,,0.00,WUHU21623XXSP,2013-12-27 13:36:00,
2013-12-27 07:41:00,25.9,23.1,30.33,North,0,0.0,0.0,89,0.00,,,0.00,WUHU21623XXSP,2013-12-27 13:41:00,
2013-12-27 07:46:00,25.9,23.1,30.34,North,0,0.0,0.0,89,0.00,,,0.00,WUHU21623XXSP,2013-12-27 13:46:00,
2013-12-27 07:51:00,25.9,23.1,30.34,North,0,0.0,0.0,89,0.00,,,0.00,WUHU21623XXSP,2013-12-27 13:51:00,
2013-12-27 07:56:00,25.9,23.1,30.33,North,0,0.0,0.0,89,0.00,,,0.00,WUHU21623XXSP,2013-12-27 13:56:00,
2013-12-27 08:01:00,26.1,23.4,30.33,North,0,0.0,0.0,89,0.00,,,0.00,WUHU21623XXSP,2013-12-27 14:01:00,
2013-12-27 08:06:00,26.2,23.4,30.33,North,0,0.0,0.0,89,0.00,,,0.00,WUHU21623XXSP,2013-12-27 14:06:00,
2013-12-27 08:11:00,26.4,23.6,30.33,North,0,0.0,0.0,89,0.00,,,0.00,WUHU21623XXSP,2013-12-27 14:11:00,
2013-12-27 08:16:00,26.8,24.3,30.34,North,0,0.0,0.0,90,0.00,,,0.00,WUHU21623XXSP,2013-12-27 14:16:00,
2013-12-27 08:21:00,27.1,24.6,30.34,North,0,0.0,0.0,90,0.00,,,0.00,WUHU21623XXSP,2013-12-27 14:21:00,
2013-12-27 08:26:00,27.3,24.8,30.34,North,0,0.0,0.0,90,0.00,,,0.00,WUHU21623XXSP,2013-12-27 14:26:00,
2013-12-27 08:31:00,27.7,25.2,30.35,North,0,0.0,0.0,90,0.00,,,0.00,WUHU21623XXSP,2013-12-27 14:31:00,
2013-12-27 08:36:00,28.0,25.5,30.35,North,0,0.0,0.0,90,0.00,,,0.00,WUHU21623XXSP,2013-12-27 14:36:00,
2013-12-27 08:41:00,28.2,25.7,30.35,North,0,0.0,0.0,90,0.00,,,0.00,WUHU21623XXSP,2013-12-27 14:41:00,
2013-12-27 08:46:00,28.8,26.2,30.35,North,0,0.0,0.0,90,0.00,,,0.00,WUHU21623XXSP,2013-12-27 14:46:00,
2013-12-27 08:51:00,29.5,27.0,30.35,North,0,0.0,0.0,90,0.00,,,0.00,WUHU21623XXSP,2013-12-27 14:51:00,
2013-12-27 08:56:00,30.0,27.5,30.35,North,0,0.0,0.0,90,0.00,,,0.00,WUHU21623XXSP,2013-12-27 14:56:00,
2013-12-27 09:01:00,30.9,28.4,30.35,North,0,0.0,0.0,90,0.00,,,0.00,WUHU21623XXSP,2013-12-27 15:01:00,
2013-12-27 09:06:00,31.5,28.9,30.35,North,0,0.0,0.0,90,0.00,,,0.00,WUHU21623XXSP,2013-12-27 15:06:00,
2013-12-27 09:11:00,31.8,29.1,30.35,North,0,0.0,0.0,90,0.00,,,0.00,WUHU21623XXSP,2013-12-27 15:11:00,
2013-12-27 09:16:00,32.7,30.4,30.35,North,0,0.0,0.0,91,0.00,,,0.00,WUHU21623XXSP,2013-12-27 15:16:00,
2013-12-27 09:21:00,33.3,30.9,30.36,North,0,0.0,0.0,91,0.00,,,0.00,WUHU21623XXSP,2013-12-27 15:21:00,
2013-12-27 09:26:00,33.6,31.2,30.35,North,0,0.0,0.0,91,0.00,,,0.00,WUHU21623XXSP,2013-12-27 15:26:00,
2013-12-27 09:31:00,34.3,31.9,30.36,North,0,0.0,0.0,91,0.00,,,0.00,WUHU21623XXSP,2013-12-27 15:31:00,
2013-12-27 09:36:00,34.7,32.3,30.36,North,0,0.0,0.0,91,0.00,,,0.00,WUHU21623XXSP,2013-12-27 15:36:00,
2013-12-27 09:41:00,35.2,32.2,30.36,North,0,0.0,0.0,90,0.00,,,0.00,WUHU21623XXSP,2013-12-27 15:41:00,
2013-12-27 09:46:00,35.8,33.1,30.36,North,0,0.0,0.0,90,0.00,,,0.00,WUHU21623XXSP,2013-12-27 15:46:00,
2013-12-27 09:51:00,36.3,33.3,30.36,North,0,0.0,0.0,90,0.00,,,0.00,WUHU21623XXSP,2013-12-27 15:51:00,
2013-12-27 09:56:00,36.7,34.0,30.36,North,0,0.0,0.0,90,0.00,,,0.00,WUHU21623XXSP,2013-12-27 15:56:00,
2013-12-27 10:01:00,37.2,34.1,30.36,North,0,0.0,0.0,89,0.00,,,0.00,WUHU21623XXSP,2013-12-27 16:01:00,
2013-12-27 10:06:00,37.6,34.6,30.36,North,0,0.0,0.0,89,0.00,,,0.00,WUHU21623XXSP,2013-12-27 16:06:00,
2013-12-27 10:11:00,37.9,34.5,30.36,North,0,0.0,0.0,88,0.00,,,0.00,WUHU21623XXSP,2013-12-27 16:11:00,
2013-12-27 10:16:00,38.5,34.9,30.36,North,0,0.0,0.0,87,0.00,,,0.00,WUHU21623XXSP,2013-12-27 16:16:00,
2013-12-27 10:21:00,38.8,35.3,30.36,North,0,0.0,0.0,87,0.00,,,0.00,WUHU21623XXSP,2013-12-27 16:21:00,
2013-12-27 10:26:00,39.6,35.5,30.36,North,0,0.0,0.0,86,0.00,,,0.00,WUHU21623XXSP,2013-12-27 16:26:00,
2013-12-27 10:31:00,39.9,35.7,30.36,North,0,0.0,0.0,85,0.00,,,0.00,WUHU21623XXSP,2013-12-27 16:31:00,
2013-12-27 10:36:00,40.3,36.1,30.36,North,0,0.0,0.0,84,0.00,,,0.00,WUHU21623XXSP,2013-12-27 16:36:00,
2013-12-27 10:41:00,41.2,36.3,30.36,North,0,0.0,0.0,83,0.00,,,0.00,WUHU21623XXSP,2013-12-27 16:41:00,
2013-12-27 10:46:00,41.5,36.4,30.36,North,0,0.0,0.0,82,0.00,,,0.00,WUHU21623XXSP,2013-12-27 16:46:00,
2013-12-27 10:51:00,41.7,36.3,30.36,North,0,0.0,0.0,81,0.00,,,0.00,WUHU21623XXSP,2013-12-27 16:51:00,
2013-12-27 10:56:00,42.3,36.8,30.35,North,0,0.0,0.0,81,0.00,,,0.00,WUHU21623XXSP,2013-12-27 16:56:00,
2013-12-27 11:01:00,42.6,37.0,30.35,North,0,0.0,0.0,80,0.00,,,0.00,WUHU21623XXSP,2013-12-27 17:01:00,
2013-12-27 11:06:00,42.8,36.7,30.35,North,0,0.0,0.0,79,0.00,,,0.00,WUHU21623XXSP,2013-12-27 17:06:00,
2013-12-27 11:11:00,43.2,36.7,30.35,North,0,0.0,0.0,78,0.00,,,0.00,WUHU21623XXSP,2013-12-27 17:11:00,
2013-12-27 11:16:00,43.5,36.9,30.34,North,0,0.0,0.0,78,0.00,,,0.00,WUHU21623XXSP,2013-12-27 17:16:00,
2013-12-27 11:21:00,43.9,37.3,30.34,North,0,0.0,0.0,77,0.00,,,0.00,WUHU21623XXSP,2013-12-27 17:21:00,
2013-12-27 11:26:00,44.2,37.5,30.34,North,0,0.0,0.0,77,0.00,,,0.00,WUHU21623XXSP,2013-12-27 17:26:00,
2013-12-27 11:31:00,44.6,37.3,30.34,North,0,0.0,0.0,76,0.00,,,0.00,WUHU21623XXSP,2013-12-27 17:31:00,
2013-12-27 11:36:00,45.0,37.5,30.34,North,0,0.0,0.0,75,0.00,,,0.00,WUHU21623XXSP,2013-12-27 17:36:00,
2013-12-27 11:41:00,45.1,37.7,30.33,North,0,0.0,0.0,75,0.00,,,0.00,WUHU21623XXSP,2013-12-27 17:41:00,
2013-12-27 11:46:00,45.5,37.3,30.32,North,0,0.0,0.0,73,0.00,,,0.00,WUHU21623XXSP,2013-12-27 17:46:00,
2013-12-27 11:51:00,45.7,37.5,30.33,North,0,0.0,0.0,73,0.00,,,0.00,WUHU21623XXSP,2013-12-27 17:51:00,
2013-12-27 11:56:00,46.0,37.2,30.32,North,0,0.0,0.0,71,0.00,,,0.00,WUHU21623XXSP,2013-12-27 17:56:00,
2013-12-27 12:01:00,46.2,37.2,30.32,North,0,0.0,0.0,71,0.00,,,0.00,WUHU21623XXSP,2013-12-27 18:01:00,
2013-12-27 12:06:00,46.6,37.4,30.31,North,0,0.0,0.0,71,0.00,,,0.00,WUHU21623XXSP,2013-12-27 18:06:00,
2013-12-27 12:11:00,46.9,37.3,30.31,North,0,0.0,0.0,69,0.00,,,0.00,WUHU21623XXSP,2013-12-27 18:11:00,
2013-12-27 12:16:00,47.1,37.3,30.31,North,0,0.0,0.0,69,0.00,,,0.00,WUHU21623XXSP,2013-12-27 18:16:00,
2013-12-27 12:21:00,47.1,36.7,30.31,North,0,0.0,0.0,67,0.00,,,0.00,WUHU21623XXSP,2013-12-27 18:21:00,
2013-12-27 12:26:00,47.5,37.0,30.30,North,0,0.0,0.0,67,0.00,,,0.00,WUHU21623XXSP,2013-12-27 18:26:00,
2013-12-27 12:31:00,47.8,37.0,30.30,North,0,0.0,0.0,66,0.00,,,0.00,WUHU21623XXSP,2013-12-27 18:31:00,
2013-12-27 12:36:00,48.0,36.6,30.30,North,0,0.0,0.0,65,0.00,,,0.00,WUHU21623XXSP,2013-12-27 18:36:00,
2013-12-27 12:41:00,48.4,36.7,30.30,North,0,0.0,0.0,64,0.00,,,0.00,WUHU21623XXSP,2013-12-27 18:41:00,
2013-12-27 12:46:00,48.4,36.7,30.29,North,0,0.0,0.0,64,0.00,,,0.00,WUHU21623XXSP,2013-12-27 18:46:00,
2013-12-27 12:51:00,48.6,36.9,30.29,North,0,0.0,0.0,64,0.00,,,0.00,WUHU21623XXSP,2013-12-27 18:51:00,
2013-12-27 12:56:00,48.9,37.2,30.29,North,0,0.0,0.0,64,0.00,,,0.00,WUHU21623XXSP,2013-12-27 18:56:00,
2013-12-27 13:01:00,49.1,37.4,30.28,North,0,0.0,0.0,64,0.00,,,0.00,WUHU21623XXSP,2013-12-27 19:01:00,
2013-12-27 13:06:00,49.5,37.4,30.28,North,0,0.0,0.0,63,0.00,,,0.00,WUHU21623XXSP,2013-12-27 19:06:00,
2013-12-27 13:11:00,49.6,37.5,30.28,North,0,0.0,0.0,62,0.00,,,0.00,WUHU21623XXSP,2013-12-27 19:11:00,
2013-12-27 13:16:00,49.8,37.3,30.28,North,0,0.0,0.0,62,0.00,,,0.00,WUHU21623XXSP,2013-12-27 19:16:00,
2013-12-27 13:21:00,49.8,36.9,30.28,North,0,0.0,0.0,61,0.00,,,0.00,WUHU21623XXSP,2013-12-27 19:21:00,
2013-12-27 13:26:00,50.2,37.2,30.28,North,0,0.0,0.0,61,0.00,,,0.00,WUHU21623XXSP,2013-12-27 19:26:00,
2013-12-27 13:31:00,50.2,37.2,30.27,North,0,0.0,0.0,61,0.00,,,0.00,WUHU21623XXSP,2013-12-27 19:31:00,
2013-12-27 13:36:00,50.2,37.2,30.27,North,0,0.0,0.0,61,0.00,,,0.00,WUHU21623XXSP,2013-12-27 19:36:00,
2013-12-27 13:41:00,50.2,37.2,30.27,North,0,0.0,0.0,61,0.00,,,0.00,WUHU21623XXSP,2013-12-27 19:41:00,
2013-12-27 13:46:00,50.2,37.2,30.27,North,0,0.0,0.0,61,0.00,,,0.00,WUHU21623XXSP,2013-12-27 19:46:00,
2013-12-27 13:51:00,50.2,37.2,30.27,North,0,0.0,0.0,61,0.00,,,0.00,WUHU21623XXSP,2013-12-27 19:51:00,
2013-12-27 13:56:00,51.3,37.4,30.26,North,0,0.0,0.0,59,0.00,,,0.00,WUHU21623XXSP,2013-12-27 19:56:00,
2013-12-27 14:01:00,51.4,37.5,30.26,North,0,0.0,0.0,59,0.00,,,0.00,WUHU21623XXSP,2013-12-27 20:01:00,
2013-12-27 14:06:00,51.4,37.5,30.26,North,0,0.0,0.0,59,0.00,,,0.00,WUHU21623XXSP,2013-12-27 20:06:00,
2013-12-27 14:11:00,51.6,37.7,30.26,North,0,0.0,0.0,59,0.00,,,0.00,WUHU21623XXSP,2013-12-27 20:11:00,
2013-12-27 14:16:00,51.6,37.7,30.26,North,0,0.0,0.0,58,0.00,,,0.00,WUHU21623XXSP,2013-12-27 20:16:00,
2013-12-27 14:21:00,51.6,37.2,30.26,North,0,0.0,0.0,58,0.00,,,0.00,WUHU21623XXSP,2013-12-27 20:21:00,
2013-12-27 14:27:00,51.6,37.2,30.26,North,0,0.0,0.0,58,0.00,,,0.00,WUHU21623XXSP,2013-12-27 20:27:00,
2013-12-27 14:32:00,51.8,37.4,30.26,North,0,0.0,0.0,58,0.00,,,0.00,WUHU21623XXSP,2013-12-27 20:32:00,
2013-12-27 14:37:00,52.0,36.7,30.26,North,0,0.0,0.0,56,0.00,,,0.00,WUHU21623XXSP,2013-12-27 20:37:00,
2013-12-27 14:42:00,51.8,37.0,30.26,North,0,0.0,0.0,57,0.00,,,0.00,WUHU21623XXSP,2013-12-27 20:42:00,
2013-12-27 14:47:00,52.0,37.1,30.26,North,0,0.0,0.0,57,0.00,,,0.00,WUHU21623XXSP,2013-12-27 20:47:00,
2013-12-27 14:52:00,52.0,36.7,30.26,North,0,0.0,0.0,57,0.00,,,0.00,WUHU21623XXSP,2013-12-27 20:52:00,
2013-12-27 14:57:00,52.2,37.3,30.26,North,0,0.0,0.0,57,0.00,,,0.00,WUHU21623XXSP,2013-12-27 20:57:00,
2013-12-27 15:02:00,52.2,37.1,30.26,North,0,0.0,0.0,57,0.00,,,0.00,WUHU21623XXSP,2013-12-27 21:02:00,
2013-12-27 15:07:00,52.0,37.1,30.26,North,0,0.0,0.0,57,0.00,,,0.00,WUHU21623XXSP,2013-12-27 21:07:00,
2013-12-27 15:12:00,52.0,37.1,30.26,North,0,0.0,0.0,57,0.00,,,0.00,WUHU21623XXSP,2013-12-27 21:12:00,
2013-12-27 15:17:00,52.0,37.1,30.26,North,0,0.0,0.0,57,0.00,,,0.00,WUHU21623XXSP,2013-12-27 21:17:00,
2013-12-27 15:22:00,51.8,37.0,30.26,North,0,0.0,0.0,57,0.00,,,0.00,WUHU21623XXSP,2013-12-27 21:22:00,
2013-12-27 15:27:00,51.8,37.0,30.26,North,0,0.0,0.0,57,0.00,,,0.00,WUHU21623XXSP,2013-12-27 21:27:00,
2013-12-27 15:32:00,51.6,37.2,30.26,North,0,0.0,0.0,58,0.00,,,0.00,WUHU21623XXSP,2013-12-27 21:32:00,
2013-12-27 15:37:00,51.6,37.2,30.26,North,0,0.0,0.0,58,0.00,,,0.00,WUHU21623XXSP,2013-12-27 21:37:00,
2013-12-27 15:42:00,51.4,37.1,30.26,North,0,0.0,0.0,58,0.00,,,0.00,WUHU21623XXSP,2013-12-27 21:42:00,
2013-12-27 15:47:00,51.3,36.9,30.26,North,0,0.0,0.0,58,0.00,,,0.00,WUHU21623XXSP,2013-12-27 21:47:00,
2013-12-27 15:52:00,51.1,36.8,30.26,North,0,0.0,0.0,58,0.00,,,0.00,WUHU21623XXSP,2013-12-27 21:52:00,
2013-12-27 15:57:00,50.7,36.4,30.26,North,0,0.0,0.0,58,0.00,,,0.00,WUHU21623XXSP,2013-12-27 21:57:00,
2013-12-27 16:02:00,50.5,36.4,30.26,North,0,0.0,0.0,59,0.00,,,0.00,WUHU21623XXSP,2013-12-27 22:02:00,
2013-12-27 16:07:00,50.2,36.4,30.26,North,0,0.0,0.0,59,0.00,,,0.00,WUHU21623XXSP,2013-12-27 22:07:00,
2013-12-27 16:12:00,50.0,36.2,30.26,North,0,0.0,0.0,59,0.00,,,0.00,WUHU21623XXSP,2013-12-27 22:12:00,
2013-12-27 16:17:00,49.8,36.0,30.26,North,0,0.0,0.0,59,0.00,,,0.00,WUHU21623XXSP,2013-12-27 22:17:00,
2013-12-27 16:22:00,49.3,36.0,30.26,North,0,0.0,0.0,60,0.00,,,0.00,WUHU21623XXSP,2013-12-27 22:22:00,
2013-12-27 16:27:00,49.1,35.9,30.26,North,0,0.0,0.0,60,0.00,,,0.00,WUHU21623XXSP,2013-12-27 22:27:00,
2013-12-27 16:32:00,48.7,35.5,30.26,North,0,0.0,0.0,60,0.00,,,0.00,WUHU21623XXSP,2013-12-27 22:32:00,
2013-12-27 16:37:00,48.0,34.9,30.26,North,0,0.0,0.0,60,0.00,,,0.00,WUHU21623XXSP,2013-12-27 22:37:00,
2013-12-27 16:42:00,47.8,35.3,30.26,North,0,0.0,0.0,61,0.00,,,0.00,WUHU21623XXSP,2013-12-27 22:42:00,
2013-12-27 16:47:00,47.3,34.7,30.26,North,0,0.0,0.0,61,0.00,,,0.00,WUHU21623XXSP,2013-12-27 22:47:00,
2013-12-27 16:52:00,46.8,34.6,30.26,North,0,0.0,0.0,62,0.00,,,0.00,WUHU21623XXSP,2013-12-27 22:52:00,
2013-12-27 16:57:00,46.2,34.2,30.26,North,0,0.0,0.0,62,0.00,,,0.00,WUHU21623XXSP,2013-12-27 22:57:00,
2013-12-27 17:02:00,46.2,33.9,30.26,North,0,0.0,0.0,62,0.00,,,0.00,WUHU21623XXSP,2013-12-27 23:02:00,
2013-12-27 17:07:00,45.1,33.4,30.25,North,0,0.0,0.0,63,0.00,,,0.00,WUHU21623XXSP,2013-12-27 23:07:00,
2013-12-27 17:12:00,45.0,33.1,30.25,North,0,0.0,0.0,64,0.00,,,0.00,WUHU21623XXSP,2013-12-27 23:12:00,
2013-12-27 17:17:00,44.4,33.0,30.25,North,0,0.0,0.0,64,0.00,,,0.00,WUHU21623XXSP,2013-12-27 23:17:00,
2013-12-27 17:22:00,44.1,33.0,30.25,North,0,0.0,0.0,65,0.00,,,0.00,WUHU21623XXSP,2013-12-27 23:22:00,
2013-12-27 17:27:00,43.7,32.7,30.25,North,0,0.0,0.0,65,0.00,,,0.00,WUHU21623XXSP,2013-12-27 23:27:00,
2013-12-27 17:32:00,43.3,32.3,30.25,North,0,0.0,0.0,65,0.00,,,0.00,WUHU21623XXSP,2013-12-27 23:32:00,
2013-12-27 17:37:00,43.0,32.4,30.25,North,0,0.0,0.0,66,0.00,,,0.00,WUHU21623XXSP,2013-12-27 23:37:00,
2013-12-27 17:42:00,42.6,32.0,30.25,North,0,0.0,0.0,66,0.00,,,0.00,WUHU21623XXSP,2013-12-27 23:42:00,
2013-12-27 17:47:00,42.1,31.5,30.25,North,0,0.0,0.0,66,0.00,,,0.00,WUHU21623XXSP,2013-12-27 23:47:00,
2013-12-27 17:52:00,41.5,31.8,30.25,North,0,0.0,0.0,68,0.00,,,0.00,WUHU21623XXSP,2013-12-27 23:52:00,
2013-12-27 17:57:00,41.4,31.6,30.25,North,0,0.0,0.0,68,0.00,,,0.00,WUHU21623XXSP,2013-12-27 23:57:00,
2013-12-27 18:02:00,41.2,31.4,30.25,North,0,0.0,0.0,68,0.00,,,0.00,WUHU21623XXSP,2013-12-28 00:02:00,
2013-12-27 18:07:00,40.8,31.1,30.25,North,0,0.0,0.0,68,0.00,,,0.00,WUHU21623XXSP,2013-12-28 00:07:00,
2013-12-27 18:12:00,40.5,31.1,30.25,North,0,0.0,0.0,69,0.00,,,0.00,WUHU21623XXSP,2013-12-28 00:12:00,
2013-12-27 18:17:00,40.1,30.7,30.25,North,0,0.0,0.0,69,0.00,,,0.00,WUHU21623XXSP,2013-12-28 00:17:00,
2013-12-27 18:22:00,39.9,30.9,30.25,North,0,0.0,0.0,70,0.00,,,0.00,WUHU21623XXSP,2013-12-28 00:22:00,
2013-12-27 18:27:00,39.7,30.7,30.25,North,0,0.0,0.0,70,0.00,,,0.00,WUHU21623XXSP,2013-12-28 00:27:00,
2013-12-27 18:32:00,39.4,30.4,30.26,North,0,0.0,0.0,70,0.00,,,0.00,WUHU21623XXSP,2013-12-28 00:32:00,
2013-12-27 18:37:00,39.4,30.7,30.26,North,0,0.0,0.0,71,0.00,,,0.00,WUHU21623XXSP,2013-12-28 00:37:00,
2013-12-27 18:42:00,39.0,30.4,30.26,North,0,0.0,0.0,71,0.00,,,0.00,WUHU21623XXSP,2013-12-28 00:42:00,
2013-12-27 18:47:00,39.0,30.4,30.26,North,0,0.0,0.0,71,0.00,,,0.00,WUHU21623XXSP,2013-12-28 00:47:00,
2013-12-27 18:52:00,38.8,30.5,30.26,North,0,0.0,0.0,71,0.00,,,0.00,WUHU21623XXSP,2013-12-28 00:52:00,
2013-12-27 18:57:00,38.8,30.5,30.26,North,0,0.0,0.0,72,0.00,,,0.00,WUHU21623XXSP,2013-12-28 00:57:00,
2013-12-27 19:02:00,38.8,30.5,30.26,North,0,0.0,0.0,72,0.00,,,0.00,WUHU21623XXSP,2013-12-28 01:02:00,
2013-12-27 19:07:00,38.8,30.4,30.26,North,0,0.0,0.0,72,0.00,,,0.00,WUHU21623XXSP,2013-12-28 01:07:00,
2013-12-27 19:12:00,38.8,30.9,30.27,North,0,0.0,0.0,73,0.00,,,0.00,WUHU21623XXSP,2013-12-28 01:12:00,
2013-12-27 19:17:00,38.8,30.9,30.26,North,0,0.0,0.0,73,0.00,,,0.00,WUHU21623XXSP,2013-12-28 01:17:00,
2013-12-27 19:22:00,38.7,30.7,30.26,North,0,0.0,0.0,73,0.00,,,0.00,WUHU21623XXSP,2013-12-28 01:22:00,
2013-12-27 19:27:00,38.7,30.7,30.26,North,0,0.0,0.0,74,0.00,,,0.00,WUHU21623XXSP,2013-12-28 01:27:00,
2013-12-27 19:32:00,38.7,31.0,30.26,North,0,0.0,0.0,74,0.00,,,0.00,WUHU21623XXSP,2013-12-28 01:32:00,
2013-12-27 19:37:00,38.8,31.2,30.26,North,0,0.0,0.0,74,0.00,,,0.00,WUHU21623XXSP,2013-12-28 01:37:00,
2013-12-27 19:42:00,38.8,31.2,30.26,North,0,0.0,0.0,74,0.00,,,0.00,WUHU21623XXSP,2013-12-28 01:42:00,
2013-12-27 19:47:00,39.0,31.4,30.27,North,0,0.0,0.0,74,0.00,,,0.00,WUHU21623XXSP,2013-12-28 01:47:00,
2013-12-27 19:52:00,39.0,31.4,30.26,North,0,0.0,0.0,74,0.00,,,0.00,WUHU21623XXSP,2013-12-28 01:52:00,
2013-12-27 19:57:00,39.0,31.4,30.26,North,0,0.0,0.0,74,0.00,,,0.00,WUHU21623XXSP,2013-12-28 01:57:00,
2013-12-27 20:02:00,39.0,31.4,30.26,North,0,0.0,0.0,74,0.00,,,0.00,WUHU21623XXSP,2013-12-28 02:02:00,
2013-12-27 20:07:00,39.0,31.7,30.26,North,0,0.0,0.0,75,0.00,,,0.00,WUHU21623XXSP,2013-12-28 02:07:00,
2013-12-27 20:12:00,39.0,31.7,30.26,North,0,0.0,0.0,75,0.00,,,0.00,WUHU21623XXSP,2013-12-28 02:12:00,
2013-12-27 20:17:00,39.0,31.7,30.26,North,0,0.0,0.0,75,0.00,,,0.00,WUHU21623XXSP,2013-12-28 02:17:00,
2013-12-27 20:22:00,39.0,31.7,30.26,North,0,0.0,0.0,75,0.00,,,0.00,WUHU21623XXSP,2013-12-28 02:22:00,
2013-12-27 20:27:00,39.0,31.7,30.26,North,0,0.0,0.0,75,0.00,,,0.00,WUHU21623XXSP,2013-12-28 02:27:00,
2013-12-27 20:32:00,39.4,32.1,30.26,North,0,0.0,0.0,75,0.00,,,0.00,WUHU21623XXSP,2013-12-28 02:32:00,
2013-12-27 20:37:00,39.6,32.3,30.26,North,0,0.0,0.0,75,0.00,,,0.00,WUHU21623XXSP,2013-12-28 02:37:00,
2013-12-27 20:42:00,39.7,32.4,30.25,North,0,0.0,0.0,75,0.00,,,0.00,WUHU21623XXSP,2013-12-28 02:42:00,
2013-12-27 20:47:00,39.9,32.4,30.26,North,0,0.0,0.0,75,0.00,,,0.00,WUHU21623XXSP,2013-12-28 02:47:00,
2013-12-27 20:52:00,39.9,32.6,30.26,North,0,0.0,0.0,75,0.00,,,0.00,WUHU21623XXSP,2013-12-28 02:52:00,
2013-12-27 20:57:00,40.3,32.8,30.26,North,0,0.0,0.0,75,0.00,,,0.00,WUHU21623XXSP,2013-12-28 02:57:00,
2013-12-27 21:02:00,40.6,33.1,30.26,North,0,0.0,0.0,75,0.00,,,0.00,WUHU21623XXSP,2013-12-28 03:02:00,
2013-12-27 21:07:00,40.6,33.3,30.25,North,0,0.0,0.0,75,0.00,,,0.00,WUHU21623XXSP,2013-12-28 03:07:00,
2013-12-27 21:12:00,40.8,33.1,30.25,North,0,0.0,0.0,74,0.00,,,0.00,WUHU21623XXSP,2013-12-28 03:12:00,
2013-12-27 21:17:00,40.8,33.1,30.25,North,0,0.0,0.0,74,0.00,,,0.00,WUHU21623XXSP,2013-12-28 03:17:00,
2013-12-27 21:22:00,40.8,33.1,30.25,North,0,0.0,0.0,74,0.00,,,0.00,WUHU21623XXSP,2013-12-28 03:22:00,
2013-12-27 21:27:00,40.6,32.9,30.25,North,0,0.0,0.0,73,0.00,,,0.00,WUHU21623XXSP,2013-12-28 03:27:00,
2013-12-27 21:32:00,40.6,32.6,30.24,North,0,0.0,0.0,73,0.00,,,0.00,WUHU21623XXSP,2013-12-28 03:32:00,
2013-12-27 21:37:00,40.5,32.4,30.24,North,0,0.0,0.0,73,0.00,,,0.00,WUHU21623XXSP,2013-12-28 03:37:00,
2013-12-27 21:42:00,40.3,32.3,30.23,North,0,0.0,0.0,73,0.00,,,0.00,WUHU21623XXSP,2013-12-28 03:42:00,
2013-12-27 21:47:00,40.1,32.6,30.23,North,0,0.0,0.0,74,0.00,,,0.00,WUHU21623XXSP,2013-12-28 03:47:00,
2013-12-27 21:52:00,40.1,32.4,30.23,North,0,0.0,0.0,74,0.00,,,0.00,WUHU21623XXSP,2013-12-28 03:52:00,
2013-12-27 21:57:00,39.9,32.3,30.23,North,0,0.0,0.0,74,0.00,,,0.00,WUHU21623XXSP,2013-12-28 03:57:00,
2013-12-27 22:02:00,39.9,32.3,30.23,North,0,0.0,0.0,74,0.00,,,0.00,WUHU21623XXSP,2013-12-28 04:02:00,
2013-12-27 22:07:00,39.7,32.1,30.23,North,0,0.0,0.0,74,0.00,,,0.00,WUHU21623XXSP,2013-12-28 04:07:00,
2013-12-27 22:12:00,39.7,32.1,30.23,North,0,0.0,0.0,74,0.00,,,0.00,WUHU21623XXSP,2013-12-28 04:12:00,
2013-12-27 22:17:00,39.9,32.3,30.23,North,0,0.0,0.0,74,0.00,,,0.00,WUHU21623XXSP,2013-12-28 04:17:00,
2013-12-27 22:22:00,39.9,32.3,30.23,North,0,0.0,0.0,74,0.00,,,0.00,WUHU21623XXSP,2013-12-28 04:22:00,
2013-12-27 22:27:00,39.9,32.3,30.23,North,0,0.0,0.0,74,0.00,,,0.00,WUHU21623XXSP,2013-12-28 04:27:00,
2013-12-27 22:32:00,39.9,32.3,30.23,North,0,0.0,0.0,74,0.00,,,0.00,WUHU21623XXSP,2013-12-28 04:32:00,
2013-12-27 22:37:00,39.9,32.3,30.22,North,0,0.0,0.0,74,0.00,,,0.00,WUHU21623XXSP,2013-12-28 04:37:00,
2013-12-27 22:42:00,39.9,32.3,30.23,North,0,0.0,0.0,74,0.00,,,0.00,WUHU21623XXSP,2013-12-28 04:42:00,
2013-12-27 22:47:00,39.7,32.1,30.22,North,0,0.0,0.0,74,0.00,,,0.00,WUHU21623XXSP,2013-12-28 04:47:00,
2013-12-27 22:52:00,39.7,32.1,30.22,North,0,0.0,0.0,74,0.00,,,0.00,WUHU21623XXSP,2013-12-28 04:52:00,
2013-12-27 22:57:00,39.6,31.9,30.22,North,0,0.0,0.0,74,0.00,,,0.00,WUHU21623XXSP,2013-12-28 04:57:00,
2013-12-27 23:02:00,39.6,31.9,30.22,North,0,0.0,0.0,74,0.00,,,0.00,WUHU21623XXSP,2013-12-28 05:02:00,
2013-12-27 23:07:00,39.6,32.3,30.21,North,0,0.0,0.0,74,0.00,,,0.00,WUHU21623XXSP,2013-12-28 05:07:00,
2013-12-27 23:10:00,39.4,31.9,30.21,North,0,0.0,0.0,74,0.00,,,0.00,WUHU21623XXSP,2013-12-28 05:10:00,
2013-12-27 23:12:00,39.4,31.7,30.22,North,0,0.0,0.0,74,0.00,,,0.00,WUHU21623XXSP,2013-12-28 05:12:00,
2013-12-27 23:17:00,39.4,31.7,30.21,North,0,0.0,0.0,74,0.00,,,0.00,WUHU21623XXSP,2013-12-28 05:17:00,
2013-12-27 23:22:00,39.0,31.4,30.21,North,0,0.0,0.0,74,0.00,,,0.00,WUHU21623XXSP,2013-12-28 05:22:00,
2013-12-27 23:25:00,39.0,31.7,30.21,North,0,0.0,0.0,75,0.00,,,0.00,WUHU21623XXSP,2013-12-28 05:25:00,
2013-12-27 23:30:00,38.8,31.6,30.21,North,0,0.0,0.0,75,0.00,,,0.00,WUHU21623XXSP,2013-12-28 05:30:00,
2013-12-27 23:35:00,38.8,31.6,30.21,North,0,0.0,0.0,75,0.00,,,0.00,WUHU21623XXSP,2013-12-28 05:35:00,
2013-12-27 23:40:00,38.5,31.2,30.21,North,0,0.0,0.0,75,0.00,,,0.00,WUHU21623XXSP,2013-12-28 05:40:00,
2013-12-27 23:45:00,38.3,31.0,30.21,North,0,0.0,0.0,75,0.00,,,0.00,WUHU21623XXSP,2013-12-28 05:45:00,
2013-12-27 23:50:00,38.1,30.9,30.21,North,0,0.0,0.0,75,0.00,,,0.00,WUHU21623XXSP,2013-12-28 05:50:00,
2013-12-27 23:55:00,37.9,30.7,30.21,North,0,0.0,0.0,75,0.00,,,0.00,WUHU21623XXSP,2013-12-28 05:55:00,